Time;durP1;ratioP1;P1;durP2;ratioP2;P2;SDS_P1;SDS_P2;PMS_P1;PMS_P2;Temp;Humidity;BMP_temperature;BMP_pressure;BME280_temperature;BME280_humidity;BME280_pressure;Samples;Min_cycle;Max_cycle;Signal;HPM_P1;HPM_P2
2022/05/06 00:02:05;;;;;;;19.25;14.07;;;;;;;;;;5002564;28;20471;-83
2022/05/06 00:04:31;;;;;;;18.85;13.82;;;;;;;;;;5002881;28;20421;-84
2022/05/06 00:06:57;;;;;;;17.67;12.80;;;;;;;;;;5002697;28;20860;-83
2022/05/06 00:09:25;;;;;;;19.15;12.85;;;;;;;;;;5004464;28;20428;-84
2022/05/06 00:11:51;;;;;;;15.10;12.93;;;;;;;;;;5004906;28;20491;-84
2022/05/06 00:14:17;;;;;;;15.98;12.80;;;;;;;;;;5003160;28;20431;-84
2022/05/06 00:16:44;;;;;;;16.57;12.73;;;;;;;;;;5001117;28;20434;-84
2022/05/06 00:19:10;;;;;;;15.80;13.27;;;;;;;;;;5003092;28;21141;-83
2022/05/06 00:21:36;;;;;;;18.83;13.32;;;;;;;;;;5003076;28;21176;-84
2022/05/06 00:24:03;;;;;;;17.05;13.25;;;;;;;;;;5004443;28;20517;-84
2022/05/06 00:26:30;;;;;;;17.13;13.15;;;;;;;;;;5002703;28;20465;-83
2022/05/06 00:28:57;;;;;;;19.05;13.73;;;;;;;;;;5003964;28;20427;-83
2022/05/06 00:31:23;;;;;;;19.93;13.23;;;;;;;;;;5003639;28;20430;-83
2022/05/06 00:33:49;;;;;;;20.33;14.48;;;;;;;;;;5003999;28;20430;-83
2022/05/06 00:36:15;;;;;;;20.02;14.13;;;;;;;;;;5002809;28;20496;-83
2022/05/06 00:38:42;;;;;;;18.65;14.85;;;;;;;;;;5001878;28;20437;-84
2022/05/06 00:41:08;;;;;;;17.80;14.70;;;;;;;;;;5003652;28;20523;-84
2022/05/06 00:43:38;;;;;;;21.38;15.05;;;;;;;;;;5003105;28;20434;-83
2022/05/06 00:46:04;;;;;;;23.15;16.20;;;;;;;;;;5002296;28;20441;-84
2022/05/06 00:48:31;;;;;;;23.35;16.20;;;;;;;;;;5000316;28;20426;-83
2022/05/06 00:50:59;;;;;;;21.45;14.45;;;;;;;;;;5001145;28;20470;-84
2022/05/06 00:53:25;;;;;;;17.70;13.98;;;;;;;;;;5003441;28;20421;-84
2022/05/06 00:55:52;;;;;;;18.77;13.38;;;;;;;;;;5003396;28;20494;-82
2022/05/06 00:58:19;;;;;;;16.50;13.63;;;;;;;;;;5000831;28;20436;-83
2022/05/06 01:00:47;;;;;;;18.40;13.88;;;;;;;;;;5001148;28;20823;-83
2022/05/06 01:03:13;;;;;;;18.08;12.63;;;;;;;;;;4997820;28;20434;-83
2022/05/06 01:05:39;;;;;;;17.23;13.80;;;;;;;;;;4998272;28;20439;-83
2022/05/06 01:08:06;;;;;;;17.90;14.70;;;;;;;;;;5001510;28;20435;-83
2022/05/06 01:10:33;;;;;;;16.47;13.03;;;;;;;;;;5000400;28;20490;-84
2022/05/06 01:12:59;;;;;;;18.15;14.15;;;;;;;;;;5001432;28;20881;-83
2022/05/06 01:15:26;;;;;;;17.77;13.48;;;;;;;;;;5000285;28;20514;-83
2022/05/06 01:17:55;;;;;;;19.10;14.25;;;;;;;;;;5000130;28;20443;-84
2022/05/06 01:20:22;;;;;;;19.73;14.80;;;;;;;;;;4997580;28;20427;-83
2022/05/06 01:22:50;;;;;;;21.15;15.05;;;;;;;;;;5001697;28;20430;-84
2022/05/06 01:25:17;;;;;;;16.85;14.00;;;;;;;;;;5000605;28;20539;-84
2022/05/06 01:27:45;;;;;;;18.63;14.48;;;;;;;;;;5001570;28;21458;-84
2022/05/06 01:30:13;;;;;;;17.52;13.27;;;;;;;;;;4999845;28;20470;-83
2022/05/06 01:32:40;;;;;;;18.15;13.80;;;;;;;;;;5002949;28;20469;-83
2022/05/06 01:35:06;;;;;;;16.15;13.18;;;;;;;;;;5001555;28;20500;-84
2022/05/06 01:37:34;;;;;;;18.60;13.73;;;;;;;;;;5001146;28;20463;-83
2022/05/06 01:40:04;;;;;;;15.70;12.90;;;;;;;;;;4997147;28;20434;-84
2022/05/06 01:42:31;;;;;;;17.10;13.30;;;;;;;;;;4999258;28;20434;-83
2022/05/06 01:44:58;;;;;;;16.87;13.50;;;;;;;;;;4995626;28;20493;-84
2022/05/06 01:47:26;;;;;;;18.30;13.40;;;;;;;;;;4997190;28;20441;-84
2022/05/06 01:49:53;;;;;;;18.73;13.97;;;;;;;;;;4994851;28;20434;-83
2022/05/06 01:52:20;;;;;;;16.45;13.73;;;;;;;;;;5001924;28;20438;-83
2022/05/06 01:54:47;;;;;;;15.40;12.60;;;;;;;;;;4998167;28;20434;-84
2022/05/06 01:57:15;;;;;;;17.92;14.43;;;;;;;;;;5000352;28;20434;-84
2022/05/06 01:59:41;;;;;;;18.10;13.52;;;;;;;;;;5002302;28;20422;-84
2022/05/06 02:02:07;;;;;;;17.70;13.23;;;;;;;;;;5004059;28;20436;-83
2022/05/06 02:07:18;;;;;;;18.08;13.05;;;;;;;;;;5003775;28;20420;-84
2022/05/06 02:09:44;;;;;;;16.95;12.80;;;;;;;;;;5004680;28;20424;-83
2022/05/06 02:12:11;;;;;;;14.55;11.98;;;;;;;;;;5005735;28;20445;-83
2022/05/06 02:14:38;;;;;;;15.82;12.95;;;;;;;;;;5002894;28;20572;-83
2022/05/06 02:17:05;;;;;;;18.80;14.05;;;;;;;;;;5002885;28;21000;-84
2022/05/06 02:19:32;;;;;;;20.08;14.45;;;;;;;;;;5003556;28;20508;-83
2022/05/06 02:21:58;;;;;;;18.20;12.85;;;;;;;;;;5004639;28;20442;-83
2022/05/06 02:24:24;;;;;;;16.40;13.40;;;;;;;;;;5004808;28;20498;-83
2022/05/06 02:26:51;;;;;;;18.58;14.10;;;;;;;;;;5003695;28;20462;-83
2022/05/06 02:29:17;;;;;;;20.37;14.37;;;;;;;;;;5003933;28;20428;-82
2022/05/06 02:34:28;;;;;;;16.63;13.38;;;;;;;;;;5001931;28;20461;-82
2022/05/06 02:36:55;;;;;;;17.15;12.52;;;;;;;;;;5003740;28;20441;-83
2022/05/06 02:39:21;;;;;;;15.60;12.23;;;;;;;;;;5002971;28;20476;-84
2022/05/06 02:41:47;;;;;;;14.73;12.02;;;;;;;;;;5003005;28;20434;-83
2022/05/06 02:44:13;;;;;;;16.17;12.30;;;;;;;;;;5000628;28;20420;-83
2022/05/06 02:46:40;;;;;;;17.05;12.82;;;;;;;;;;5001029;28;20437;-83
2022/05/06 02:49:08;;;;;;;17.05;13.50;;;;;;;;;;4997960;28;20431;-83
2022/05/06 02:51:34;;;;;;;15.07;12.25;;;;;;;;;;5000519;28;20426;-83
2022/05/06 02:54:00;;;;;;;16.40;12.47;;;;;;;;;;4999695;28;20483;-83
2022/05/06 02:56:26;;;;;;;17.23;13.57;;;;;;;;;;5000172;28;21037;-83
2022/05/06 02:58:53;;;;;;;17.33;13.80;;;;;;;;;;4997799;28;20803;-83
2022/05/06 03:01:19;;;;;;;14.95;12.50;;;;;;;;;;5001063;28;20479;-84
2022/05/06 03:03:45;;;;;;;17.90;13.38;;;;;;;;;;4999407;28;20469;-83
2022/05/06 03:06:13;;;;;;;18.05;13.30;;;;;;;;;;5000924;28;20438;-83
2022/05/06 03:08:39;;;;;;;17.27;12.77;;;;;;;;;;4999022;28;20438;-83
2022/05/06 03:11:05;;;;;;;18.58;14.07;;;;;;;;;;5000848;28;20469;-83
2022/05/06 03:13:31;;;;;;;18.30;14.05;;;;;;;;;;5001974;28;20440;-83
2022/05/06 03:15:58;;;;;;;19.30;14.07;;;;;;;;;;5002322;28;20440;-83
2022/05/06 03:18:24;;;;;;;19.10;14.45;;;;;;;;;;5000422;28;20489;-83
2022/05/06 03:20:50;;;;;;;17.70;13.90;;;;;;;;;;5001263;28;20451;-83
2022/05/06 03:23:18;;;;;;;20.30;14.07;;;;;;;;;;5004407;28;20442;-83
2022/05/06 03:25:44;;;;;;;21.48;14.48;;;;;;;;;;5002332;28;20495;-83
2022/05/06 03:28:10;;;;;;;20.08;14.60;;;;;;;;;;5002925;28;20433;-83
2022/05/06 03:30:39;;;;;;;20.47;14.40;;;;;;;;;;5000630;28;20432;-83
2022/05/06 03:33:08;;;;;;;18.75;13.93;;;;;;;;;;5001769;28;20442;-83
2022/05/06 03:35:34;;;;;;;19.38;14.77;;;;;;;;;;5001572;28;20426;-83
2022/05/06 03:38:00;;;;;;;19.67;14.57;;;;;;;;;;5000398;28;21196;-81
2022/05/06 03:40:28;;;;;;;18.27;13.67;;;;;;;;;;5003487;28;20427;-83
2022/05/06 03:42:54;;;;;;;17.42;13.30;;;;;;;;;;5002364;28;20430;-84
2022/05/06 03:45:21;;;;;;;17.75;12.60;;;;;;;;;;4998295;28;20457;-83
2022/05/06 03:47:47;;;;;;;17.42;12.82;;;;;;;;;;5003430;28;20465;-83
2022/05/06 03:52:58;;;;;;;17.40;12.60;;;;;;;;;;5000498;28;21268;-83
2022/05/06 03:55:25;;;;;;;17.05;13.60;;;;;;;;;;5001785;28;20488;-83
2022/05/06 03:57:52;;;;;;;18.13;13.43;;;;;;;;;;5001641;28;20434;-83
2022/05/06 04:00:19;;;;;;;18.05;14.15;;;;;;;;;;4997915;28;20471;-83
2022/05/06 04:02:46;;;;;;;21.23;15.25;;;;;;;;;;5003052;28;20424;-82
2022/05/06 04:05:12;;;;;;;19.27;13.60;;;;;;;;;;5003027;28;20424;-83
2022/05/06 04:07:38;;;;;;;21.27;14.48;;;;;;;;;;5002372;28;20433;-83
2022/05/06 04:10:05;;;;;;;19.10;14.00;;;;;;;;;;5002403;28;20426;-83
2022/05/06 04:12:32;;;;;;;19.48;13.80;;;;;;;;;;5001491;28;20440;-83
2022/05/06 04:15:00;;;;;;;21.02;13.65;;;;;;;;;;4999280;28;20435;-83
2022/05/06 04:17:26;;;;;;;16.73;12.80;;;;;;;;;;4999315;28;20435;-83
2022/05/06 04:25:31;;;;;;;17.00;13.75;;;;;;;;;;4920792;29;20565;-83
2022/05/06 04:27:57;;;;;;;19.58;13.90;;;;;;;;;;4983482;28;20438;-83
2022/05/06 04:30:25;;;;;;;21.27;13.90;;;;;;;;;;4995870;28;20943;-81
2022/05/06 04:32:51;;;;;;;16.92;12.90;;;;;;;;;;5001241;28;20434;-83
2022/05/06 04:35:18;;;;;;;18.50;13.80;;;;;;;;;;4998806;28;20485;-83
2022/05/06 04:37:45;;;;;;;19.27;14.02;;;;;;;;;;5001149;28;20912;-82
2022/05/06 04:40:12;;;;;;;17.40;14.18;;;;;;;;;;4999992;28;20425;-83
2022/05/06 04:42:38;;;;;;;21.77;14.67;;;;;;;;;;5002315;28;20534;-83
2022/05/06 04:45:05;;;;;;;19.15;14.00;;;;;;;;;;4999918;28;20436;-83
2022/05/06 04:47:34;;;;;;;19.02;13.27;;;;;;;;;;5000321;28;20438;-83
2022/05/06 04:50:00;;;;;;;18.58;14.25;;;;;;;;;;4999671;28;20453;-82
2022/05/06 04:52:26;;;;;;;19.33;14.23;;;;;;;;;;4997339;28;20445;-83
2022/05/06 04:54:53;;;;;;;23.40;14.30;;;;;;;;;;4999919;28;20421;-83
2022/05/06 04:57:19;;;;;;;19.67;14.23;;;;;;;;;;4999054;28;20494;-83
2022/05/06 04:59:47;;;;;;;19.42;13.57;;;;;;;;;;4997999;28;20850;-83
2022/05/06 05:02:14;;;;;;;19.77;13.93;;;;;;;;;;4998844;28;20560;-83
2022/05/06 05:04:42;;;;;;;22.83;14.27;;;;;;;;;;4999830;28;20430;-83
2022/05/06 05:07:08;;;;;;;19.50;13.52;;;;;;;;;;5000669;28;20900;-83
2022/05/06 05:09:34;;;;;;;19.25;14.13;;;;;;;;;;4996637;28;20434;-83
2022/05/06 05:12:01;;;;;;;19.95;14.68;;;;;;;;;;5000421;28;20485;-83
2022/05/06 05:14:27;;;;;;;21.10;15.10;;;;;;;;;;5000521;28;20477;-83
2022/05/06 05:16:53;;;;;;;17.92;13.80;;;;;;;;;;5000686;28;20470;-83
2022/05/06 05:19:20;;;;;;;18.88;13.90;;;;;;;;;;5001561;28;20474;-83
2022/05/06 05:21:48;;;;;;;22.08;15.32;;;;;;;;;;5001330;28;20428;-83
2022/05/06 05:24:14;;;;;;;21.13;15.10;;;;;;;;;;5001227;28;20456;-82
2022/05/06 05:26:40;;;;;;;21.88;15.27;;;;;;;;;;4997230;28;20437;-83
2022/05/06 05:29:07;;;;;;;21.03;15.77;;;;;;;;;;5000413;28;20414;-83
2022/05/06 05:31:33;;;;;;;21.63;15.35;;;;;;;;;;4999786;28;20446;-83
2022/05/06 05:33:59;;;;;;;17.73;14.40;;;;;;;;;;4998194;28;20422;-83
2022/05/06 05:36:25;;;;;;;19.23;15.07;;;;;;;;;;5001118;28;20435;-83
2022/05/06 05:38:53;;;;;;;19.98;14.90;;;;;;;;;;5000010;28;20440;-83
2022/05/06 05:41:19;;;;;;;21.02;16.10;;;;;;;;;;5002957;28;20455;-82
2022/05/06 05:49:13;;;;;;;21.60;16.40;;;;;;;;;;5003251;28;20418;-82
2022/05/06 05:51:39;;;;;;;22.20;15.90;;;;;;;;;;5003961;28;20428;-82
2022/05/06 05:54:07;;;;;;;24.60;17.27;;;;;;;;;;5002780;28;20413;-83
2022/05/06 05:56:33;;;;;;;25.75;19.65;;;;;;;;;;5001889;28;20491;-83
2022/05/06 05:58:59;;;;;;;28.63;18.48;;;;;;;;;;5002757;28;20413;-83
2022/05/06 06:01:26;;;;;;;26.73;18.15;;;;;;;;;;5000051;28;20494;-82
2022/05/06 06:03:52;;;;;;;27.75;20.30;;;;;;;;;;4998842;28;20485;-82
2022/05/06 06:06:18;;;;;;;30.48;21.65;;;;;;;;;;4999323;28;20479;-82
2022/05/06 06:08:45;;;;;;;33.40;22.52;;;;;;;;;;4996687;28;20430;-80
2022/05/06 06:11:12;;;;;;;35.47;23.63;;;;;;;;;;4999555;28;20472;-83
2022/05/06 06:13:38;;;;;;;31.08;21.08;;;;;;;;;;4998767;28;20449;-83
2022/05/06 06:16:05;;;;;;;30.10;21.55;;;;;;;;;;4999048;28;20444;-81
2022/05/06 06:18:31;;;;;;;33.58;23.13;;;;;;;;;;4996990;28;20457;-83
2022/05/06 06:20:57;;;;;;;27.85;20.95;;;;;;;;;;4997803;28;20503;-83
2022/05/06 06:23:24;;;;;;;26.40;20.67;;;;;;;;;;4996674;28;21481;-82
2022/05/06 06:25:50;;;;;;;25.08;19.05;;;;;;;;;;4995153;28;20430;-82
2022/05/06 06:28:18;;;;;;;25.30;17.23;;;;;;;;;;5000329;28;20430;-82
2022/05/06 06:30:44;;;;;;;26.95;18.48;;;;;;;;;;4995516;28;20477;-81
2022/05/06 06:33:10;;;;;;;27.08;17.30;;;;;;;;;;5000927;28;20465;-83
2022/05/06 06:35:37;;;;;;;23.65;17.90;;;;;;;;;;4998224;28;20432;-82
2022/05/06 06:38:03;;;;;;;23.23;17.73;;;;;;;;;;4999795;28;20428;-83
2022/05/06 06:40:29;;;;;;;25.77;18.75;;;;;;;;;;5000844;28;20522;-82
2022/05/06 06:43:00;;;;;;;22.93;17.90;;;;;;;;;;5005160;28;20424;-82
2022/05/06 06:45:27;;;;;;;21.90;16.50;;;;;;;;;;4999926;28;20959;-82
2022/05/06 06:47:54;;;;;;;21.25;17.02;;;;;;;;;;5000240;28;20446;-82
2022/05/06 06:50:20;;;;;;;18.90;14.45;;;;;;;;;;4999226;28;20511;-82
2022/05/06 06:52:46;;;;;;;23.87;15.00;;;;;;;;;;5003930;28;20423;-82
2022/05/06 06:55:13;;;;;;;19.73;14.77;;;;;;;;;;5000052;28;20868;-82
2022/05/06 06:57:39;;;;;;;22.00;13.95;;;;;;;;;;4999795;28;20975;-82
2022/05/06 07:00:08;;;;;;;17.80;13.57;;;;;;;;;;5000480;28;21145;-82
2022/05/06 07:02:36;;;;;;;19.08;13.70;;;;;;;;;;5001440;28;20479;-82
2022/05/06 07:05:02;;;;;;;18.17;14.18;;;;;;;;;;5000715;28;20923;-83
2022/05/06 07:12:56;;;;;;;14.37;11.90;;;;;;;;;;5001977;28;20478;-83
2022/05/06 07:15:23;;;;;;;19.65;12.60;;;;;;;;;;5004495;28;20422;-83
2022/05/06 07:17:50;;;;;;;19.42;13.20;;;;;;;;;;5006397;28;20423;-83
2022/05/06 07:20:17;;;;;;;16.02;12.75;;;;;;;;;;5002014;28;20501;-82
2022/05/06 07:22:43;;;;;;;21.63;13.50;;;;;;;;;;5002503;28;20871;-83
2022/05/06 07:25:09;;;;;;;18.07;13.00;;;;;;;;;;5002070;28;20861;-83
2022/05/06 07:27:36;;;;;;;18.70;13.70;;;;;;;;;;5000781;28;20492;-83
2022/05/06 07:30:02;;;;;;;18.45;13.77;;;;;;;;;;4998359;28;20428;-83
2022/05/06 07:32:28;;;;;;;17.23;13.87;;;;;;;;;;5004845;28;20488;-83
2022/05/06 07:34:56;;;;;;;20.05;13.77;;;;;;;;;;5003344;28;20430;-83
2022/05/06 07:37:22;;;;;;;20.23;13.68;;;;;;;;;;5002839;28;20566;-83
2022/05/06 07:39:48;;;;;;;20.38;14.23;;;;;;;;;;5001328;28;20838;-83
2022/05/06 07:42:15;;;;;;;17.60;12.50;;;;;;;;;;5000211;28;20495;-83
2022/05/06 07:44:41;;;;;;;18.23;13.67;;;;;;;;;;4996347;28;20514;-83
2022/05/06 07:47:07;;;;;;;20.00;13.20;;;;;;;;;;5004098;28;20446;-83
2022/05/06 07:49:33;;;;;;;18.90;14.57;;;;;;;;;;5001923;28;20427;-83
2022/05/06 07:52:01;;;;;;;17.55;13.40;;;;;;;;;;5000239;28;20444;-83
2022/05/06 07:54:27;;;;;;;21.50;13.27;;;;;;;;;;4998974;28;20927;-83
2022/05/06 07:56:53;;;;;;;18.75;13.50;;;;;;;;;;5000995;28;20469;-83
2022/05/06 07:59:20;;;;;;;19.70;13.30;;;;;;;;;;5001345;28;20436;-83
2022/05/06 08:04:36;;;;;;;19.30;13.25;;;;;;;;;;5002177;28;20433;-83
2022/05/06 08:07:05;;;;;;;16.83;12.80;;;;;;;;;;5002003;28;20440;-83
2022/05/06 08:09:31;;;;;;;16.38;12.68;;;;;;;;;;5000723;28;20430;-83
2022/05/06 08:11:57;;;;;;;14.10;11.90;;;;;;;;;;4999243;28;20479;-83
2022/05/06 08:14:24;;;;;;;14.70;12.15;;;;;;;;;;5002551;28;20421;-84
2022/05/06 08:16:50;;;;;;;18.27;12.73;;;;;;;;;;4999955;28;20436;-83
2022/05/06 08:19:16;;;;;;;15.75;12.38;;;;;;;;;;5000924;28;20420;-83
2022/05/06 08:21:43;;;;;;;15.82;13.23;;;;;;;;;;5001543;28;20480;-83
2022/05/06 08:24:11;;;;;;;15.88;12.43;;;;;;;;;;5002823;28;20415;-83
2022/05/06 08:26:38;;;;;;;16.35;13.82;;;;;;;;;;5003722;28;20460;-84
2022/05/06 08:29:04;;;;;;;13.77;12.38;;;;;;;;;;5000640;28;20453;-84
2022/05/06 08:31:37;;;;;;;16.27;12.43;;;;;;;;;;5000295;28;20436;-83
2022/05/06 08:34:03;;;;;;;16.02;12.70;;;;;;;;;;5000664;28;20414;-83
2022/05/06 08:36:30;;;;;;;15.00;13.40;;;;;;;;;;5002700;28;20446;-83
2022/05/06 08:38:56;;;;;;;15.57;13.15;;;;;;;;;;4997056;28;20456;-84
2022/05/06 08:41:25;;;;;;;17.77;13.73;;;;;;;;;;5000588;28;20440;-82
2022/05/06 08:43:52;;;;;;;18.13;12.80;;;;;;;;;;5002562;28;20846;-83
2022/05/06 08:51:48;;;;;;;18.10;10.40;;;;;;;;;;4999714;28;20813;-83
2022/05/06 08:54:16;;;;;;;14.73;11.07;;;;;;;;;;4997849;28;20417;-83
2022/05/06 08:56:44;;;;;;;12.43;10.57;;;;;;;;;;5003792;28;20876;-84
2022/05/06 08:59:10;;;;;;;12.70;10.35;;;;;;;;;;5000144;28;20428;-87
2022/05/06 09:01:36;;;;;;;11.43;9.82;;;;;;;;;;4997456;28;20438;-84
2022/05/06 09:04:03;;;;;;;11.93;9.43;;;;;;;;;;4997449;28;20795;-83
2022/05/06 09:06:31;;;;;;;12.65;9.85;;;;;;;;;;5000521;28;20434;-84
2022/05/06 09:08:58;;;;;;;13.32;10.13;;;;;;;;;;5002584;28;20441;-83
2022/05/06 09:14:07;;;;;;;12.88;10.00;;;;;;;;;;5000383;28;20402;-83
2022/05/06 09:16:42;;;;;;;11.55;9.20;;;;;;;;;;4999823;28;20451;-84
2022/05/06 09:19:12;;;;;;;13.00;10.40;;;;;;;;;;4999847;28;20941;-84
2022/05/06 09:21:39;;;;;;;11.95;10.70;;;;;;;;;;4999493;28;20523;-84
2022/05/06 09:24:19;;;;;;;11.57;10.15;;;;;;;;;;5000016;28;20438;-83
2022/05/06 09:26:59;;;;;;;13.40;10.97;;;;;;;;;;5000296;28;20438;-84
2022/05/06 09:29:30;;;;;;;14.82;11.63;;;;;;;;;;4999489;28;20420;-84
2022/05/06 09:31:57;;;;;;;13.02;10.85;;;;;;;;;;4999462;28;20438;-84
2022/05/06 09:34:27;;;;;;;15.25;11.48;;;;;;;;;;4999733;28;20452;-84
2022/05/06 09:36:54;;;;;;;14.05;10.60;;;;;;;;;;5000756;28;20444;-85
2022/05/06 09:39:21;;;;;;;15.30;12.98;;;;;;;;;;5002189;28;20940;-85
2022/05/06 09:41:48;;;;;;;15.52;12.30;;;;;;;;;;5003300;28;20438;-84
2022/05/06 09:44:15;;;;;;;13.77;11.75;;;;;;;;;;4999640;28;20497;-84
2022/05/06 09:46:44;;;;;;;14.90;11.10;;;;;;;;;;5000797;28;20472;-84
2022/05/06 09:49:10;;;;;;;16.20;12.48;;;;;;;;;;5000038;28;20414;-84
2022/05/06 09:51:37;;;;;;;13.23;11.10;;;;;;;;;;5002197;28;20460;-84
2022/05/06 09:54:04;;;;;;;12.90;11.43;;;;;;;;;;4998894;28;20506;-85
2022/05/06 09:56:31;;;;;;;15.52;11.27;;;;;;;;;;4999986;28;20440;-84
2022/05/06 09:58:58;;;;;;;14.80;12.70;;;;;;;;;;5001332;28;20414;-86
2022/05/06 10:01:24;;;;;;;14.32;12.35;;;;;;;;;;4996434;28;20819;-84
2022/05/06 10:03:53;;;;;;;12.75;11.18;;;;;;;;;;4997048;28;20438;-84
2022/05/06 10:06:21;;;;;;;12.00;10.55;;;;;;;;;;5001190;28;20465;-86
2022/05/06 10:08:49;;;;;;;12.43;11.00;;;;;;;;;;4997451;28;20575;-84
2022/05/06 10:11:18;;;;;;;11.43;10.23;;;;;;;;;;4996766;28;20516;-85
2022/05/06 10:13:46;;;;;;;12.63;9.60;;;;;;;;;;5002083;28;20438;-83
2022/05/06 10:16:12;;;;;;;12.80;10.48;;;;;;;;;;4995791;28;20440;-84
2022/05/06 10:18:39;;;;;;;11.20;9.97;;;;;;;;;;5001481;28;20496;-84
2022/05/06 10:21:08;;;;;;;13.52;10.10;;;;;;;;;;5002335;28;20424;-83
2022/05/06 10:23:44;;;;;;;12.18;10.20;;;;;;;;;;5003536;28;20440;-82
2022/05/06 10:26:30;;;;;;;10.40;9.15;;;;;;;;;;5002009;28;20452;-83
2022/05/06 10:34:27;;;;;;;11.30;8.60;;;;;;;;;;5006163;28;20474;-83
2022/05/06 10:36:54;;;;;;;11.07;9.00;;;;;;;;;;5003997;28;20925;-83
2022/05/06 10:39:20;;;;;;;11.30;9.93;;;;;;;;;;5005069;28;20418;-83
2022/05/06 10:41:59;;;;;;;11.13;9.80;;;;;;;;;;5006071;28;20988;-83
2022/05/06 10:44:34;;;;;;;11.10;9.00;;;;;;;;;;5001414;28;20442;-84
2022/05/06 10:47:00;;;;;;;11.87;10.27;;;;;;;;;;5003329;28;20517;-83
2022/05/06 10:49:46;;;;;;;13.10;11.73;;;;;;;;;;5001278;28;20951;-83
2022/05/06 10:52:33;;;;;;;16.75;11.55;;;;;;;;;;5004424;28;20485;-81
2022/05/06 10:55:00;;;;;;;13.48;12.07;;;;;;;;;;5004369;28;21053;-82
2022/05/06 10:57:26;;;;;;;12.07;10.40;;;;;;;;;;5002606;28;20449;-82
2022/05/06 10:59:55;;;;;;;12.23;10.27;;;;;;;;;;5003905;28;20423;-82
2022/05/06 11:02:22;;;;;;;12.77;10.27;;;;;;;;;;5003381;28;20471;-82
2022/05/06 11:04:50;;;;;;;12.07;10.57;;;;;;;;;;5004458;28;20437;-81
2022/05/06 11:07:17;;;;;;;12.75;10.77;;;;;;;;;;4996923;28;20505;-82
2022/05/06 11:09:43;;;;;;;13.18;10.55;;;;;;;;;;5002483;28;20489;-82
2022/05/06 11:12:09;;;;;;;14.52;12.10;;;;;;;;;;5005954;28;20437;-81
2022/05/06 11:14:36;;;;;;;13.33;11.73;;;;;;;;;;5004679;28;20448;-81
2022/05/06 11:17:15;;;;;;;13.93;11.40;;;;;;;;;;5001528;28;20512;-80
2022/05/06 11:19:42;;;;;;;13.83;9.90;;;;;;;;;;5002536;28;20823;-82
2022/05/06 11:22:08;;;;;;;11.13;10.00;;;;;;;;;;5004944;28;20484;-81
2022/05/06 11:24:34;;;;;;;12.25;9.73;;;;;;;;;;5004644;28;20431;-82
2022/05/06 11:27:11;;;;;;;11.43;9.13;;;;;;;;;;5005262;28;20438;-81
2022/05/06 11:29:46;;;;;;;11.52;10.20;;;;;;;;;;5007168;28;20430;-83
2022/05/06 11:32:12;;;;;;;9.57;8.57;;;;;;;;;;5005708;28;20994;-84
2022/05/06 11:34:42;;;;;;;10.00;7.77;;;;;;;;;;5003154;28;20481;-84
2022/05/06 11:37:09;;;;;;;10.32;8.60;;;;;;;;;;5002839;28;20434;-84
2022/05/06 11:39:36;;;;;;;9.95;8.10;;;;;;;;;;5002423;28;20430;-82
2022/05/06 11:42:17;;;;;;;9.93;8.20;;;;;;;;;;5005310;28;20441;-83
2022/05/06 11:47:30;;;;;;;9.68;8.68;;;;;;;;;;5002097;28;20508;-83
2022/05/06 11:49:59;;;;;;;9.95;8.50;;;;;;;;;;5002248;28;20442;-83
2022/05/06 11:52:25;;;;;;;12.07;9.57;;;;;;;;;;5004081;28;20445;-82
2022/05/06 11:54:51;;;;;;;12.18;8.70;;;;;;;;;;5001896;28;20425;-83
2022/05/06 11:57:17;;;;;;;10.60;9.50;;;;;;;;;;5004837;28;20463;-83
2022/05/06 11:59:44;;;;;;;10.68;8.02;;;;;;;;;;5001878;28;20501;-83
2022/05/06 12:02:11;;;;;;;8.43;6.82;;;;;;;;;;5000661;28;20442;-83
2022/05/06 12:04:38;;;;;;;12.50;7.68;;;;;;;;;;5002741;28;20798;-83
2022/05/06 12:07:05;;;;;;;8.90;8.00;;;;;;;;;;5004795;28;20440;-83
2022/05/06 12:09:41;;;;;;;9.57;8.13;;;;;;;;;;5004753;28;20485;-84
2022/05/06 12:12:08;;;;;;;9.70;8.20;;;;;;;;;;4999272;28;20438;-82
2022/05/06 12:14:35;;;;;;;10.85;9.27;;;;;;;;;;5000518;28;20852;-82
2022/05/06 12:17:02;;;;;;;10.13;8.43;;;;;;;;;;5001506;28;20432;-82
2022/05/06 12:19:35;;;;;;;8.52;7.60;;;;;;;;;;5001225;28;20420;-82
2022/05/06 12:22:07;;;;;;;8.57;7.68;;;;;;;;;;5001237;28;20489;-82
2022/05/06 12:24:43;;;;;;;8.35;7.00;;;;;;;;;;5001343;28;20427;-82
2022/05/06 12:27:09;;;;;;;8.07;7.20;;;;;;;;;;5000710;28;20450;-82
2022/05/06 12:29:37;;;;;;;6.90;6.10;;;;;;;;;;4998653;28;20433;-81
2022/05/06 12:32:04;;;;;;;6.70;6.00;;;;;;;;;;4998460;28;20525;-83
2022/05/06 12:34:31;;;;;;;9.38;7.47;;;;;;;;;;5002117;28;20531;-82
2022/05/06 12:37:10;;;;;;;10.15;7.80;;;;;;;;;;5001478;28;20951;-83
2022/05/06 12:39:39;;;;;;;10.13;6.72;;;;;;;;;;4999136;28;20505;-82
2022/05/06 12:42:11;;;;;;;8.25;7.45;;;;;;;;;;5000611;28;20513;-82
2022/05/06 12:44:37;;;;;;;8.25;6.82;;;;;;;;;;5002623;28;20547;-82
2022/05/06 12:47:12;;;;;;;8.80;6.78;;;;;;;;;;5000418;28;20434;-82
2022/05/06 12:49:40;;;;;;;8.00;7.20;;;;;;;;;;4999234;28;20482;-82
2022/05/06 12:52:08;;;;;;;8.93;7.60;;;;;;;;;;5000788;28;20445;-82
2022/05/06 12:54:36;;;;;;;11.90;7.40;;;;;;;;;;5001255;28;20519;-82
2022/05/06 12:57:03;;;;;;;7.40;6.70;;;;;;;;;;5001362;28;20467;-82
2022/05/06 12:59:29;;;;;;;7.07;6.20;;;;;;;;;;5001386;28;20433;-83
2022/05/06 13:01:56;;;;;;;7.75;6.53;;;;;;;;;;5000290;28;20438;-83
2022/05/06 13:04:22;;;;;;;9.00;6.88;;;;;;;;;;5000810;28;20422;-82
2022/05/06 13:06:49;;;;;;;9.48;7.15;;;;;;;;;;5002764;28;20415;-82
2022/05/06 13:09:15;;;;;;;9.80;7.45;;;;;;;;;;4998994;28;20426;-83
2022/05/06 13:11:43;;;;;;;8.50;6.20;;;;;;;;;;5001441;28;20491;-82
2022/05/06 13:14:09;;;;;;;8.50;7.70;;;;;;;;;;5002755;28;20492;-82
2022/05/06 13:16:36;;;;;;;9.50;7.00;;;;;;;;;;4998113;28;20515;-82
2022/05/06 13:19:02;;;;;;;10.70;7.13;;;;;;;;;;4996860;28;20428;-82
2022/05/06 13:21:28;;;;;;;7.30;6.60;;;;;;;;;;4997749;28;20525;-82
2022/05/06 13:23:55;;;;;;;9.75;6.70;;;;;;;;;;5002709;28;20439;-82
2022/05/06 13:26:21;;;;;;;10.85;6.88;;;;;;;;;;5001855;28;20925;-83
2022/05/06 13:28:49;;;;;;;6.87;6.17;;;;;;;;;;5000911;28;20832;-82
2022/05/06 13:31:15;;;;;;;9.98;7.00;;;;;;;;;;4998361;28;20435;-82
2022/05/06 13:33:41;;;;;;;7.65;5.50;;;;;;;;;;5000543;28;20439;-81
2022/05/06 13:36:07;;;;;;;7.95;6.18;;;;;;;;;;4999292;28;20961;-82
2022/05/06 13:38:34;;;;;;;7.50;5.97;;;;;;;;;;4996965;28;20990;-82
2022/05/06 13:41:00;;;;;;;7.87;5.50;;;;;;;;;;4997605;28;20943;-82
2022/05/06 13:43:27;;;;;;;8.40;6.60;;;;;;;;;;4995357;28;22252;-84
2022/05/06 13:45:55;;;;;;;8.23;6.50;;;;;;;;;;4997331;28;20427;-82
2022/05/06 13:48:21;;;;;;;9.25;5.80;;;;;;;;;;5000934;28;20430;-82
2022/05/06 13:50:48;;;;;;;6.17;5.27;;;;;;;;;;5003957;28;20413;-82
2022/05/06 13:53:14;;;;;;;7.53;5.50;;;;;;;;;;5004686;28;20474;-82
2022/05/06 14:01:10;;;;;;;6.80;5.40;;;;;;;;;;5000918;28;20459;-82
2022/05/06 14:03:36;;;;;;;6.07;4.80;;;;;;;;;;5001187;28;20432;-84
2022/05/06 14:06:02;;;;;;;6.68;4.32;;;;;;;;;;5002504;28;20442;-83
2022/05/06 14:08:29;;;;;;;6.10;5.40;;;;;;;;;;5000405;28;21035;-82
2022/05/06 14:10:55;;;;;;;6.27;4.90;;;;;;;;;;5002427;28;20454;-82
2022/05/06 14:13:21;;;;;;;7.50;6.22;;;;;;;;;;5005951;28;20435;-83
2022/05/06 14:15:48;;;;;;;8.25;5.75;;;;;;;;;;5004887;28;20509;-83
2022/05/06 14:18:15;;;;;;;7.70;5.57;;;;;;;;;;5003536;28;20445;-83
2022/05/06 14:20:42;;;;;;;6.30;5.80;;;;;;;;;;5002505;28;20428;-84
2022/05/06 14:23:08;;;;;;;5.20;4.70;;;;;;;;;;5004023;28;20495;-83
2022/05/06 14:25:34;;;;;;;5.40;4.90;;;;;;;;;;5004917;28;20484;-83
2022/05/06 14:28:00;;;;;;;5.78;5.20;;;;;;;;;;5003471;28;20486;-83
2022/05/06 14:30:27;;;;;;;6.40;4.80;;;;;;;;;;5000075;28;20797;-83
2022/05/06 14:32:53;;;;;;;5.47;4.68;;;;;;;;;;5003583;28;20437;-83
2022/05/06 14:35:21;;;;;;;7.25;4.97;;;;;;;;;;4999705;28;20437;-84
2022/05/06 14:37:49;;;;;;;7.13;5.47;;;;;;;;;;5002845;28;20428;-83
2022/05/06 14:40:16;;;;;;;4.97;4.53;;;;;;;;;;5000651;28;21118;-83
2022/05/06 14:42:43;;;;;;;5.40;4.60;;;;;;;;;;5003834;28;20442;-83
2022/05/06 14:45:10;;;;;;;8.10;4.90;;;;;;;;;;4998062;28;20480;-83
2022/05/06 14:47:36;;;;;;;6.20;5.10;;;;;;;;;;5005667;28;20487;-83
2022/05/06 14:50:03;;;;;;;9.50;5.10;;;;;;;;;;4997289;28;20442;-83
2022/05/06 14:52:31;;;;;;;7.45;5.30;;;;;;;;;;5004177;28;20482;-83
2022/05/06 14:54:57;;;;;;;6.90;4.43;;;;;;;;;;5003569;28;20439;-83
2022/05/06 14:57:23;;;;;;;5.30;4.57;;;;;;;;;;5003334;28;20414;-83
2022/05/06 14:59:50;;;;;;;6.68;5.43;;;;;;;;;;5001598;28;20479;-83
2022/05/06 15:02:16;;;;;;;5.65;4.40;;;;;;;;;;5001200;28;20428;-83
2022/05/06 15:04:42;;;;;;;6.18;5.50;;;;;;;;;;4998328;28;20436;-82
2022/05/06 15:07:08;;;;;;;7.40;6.00;;;;;;;;;;5003729;28;20413;-83
2022/05/06 15:09:36;;;;;;;9.20;5.50;;;;;;;;;;5003016;28;20425;-84
2022/05/06 15:12:03;;;;;;;8.93;6.10;;;;;;;;;;5003620;28;20918;-83
2022/05/06 15:14:31;;;;;;;6.70;6.00;;;;;;;;;;5003693;28;20496;-83